Share

Hughes, AK

1:50 PM AKDT on April 23, 2014 (GMT -0800)
Indian Mountain (PAIM) Elev 1276 ft | 65.99 °N, 153.70 °W | Change Station

Current weather conditions updated 55 minutes ago

Clear
Clear
35 °F
Feels Like 27 °F
N
12
Wind Variable Wind from East
Gusts 20 mph
Sunrise 6:02 AM
Sunset 10:26 PM
Moon Waning Crescent

Today is forecast to be nearly the same temperature as yesterday.

Pressure 29.83 in
Visibility 10.0 miles
Clouds Clear
Windchill 27 °F
Dew Point 17 °F
Humidity 49%
Rainfall 0.00 in
Snow Depth Not available.
UV 4 out of 16
Pollen Not available.
Air Quality Not available.
Flu Activity Sporadic
METAR PAIM 232055Z AUTO 08010G17KT 040V100 10SM CLR 02/M08 A2977 RMK AO2 SLP101 T00161082 57009

More Conditions Fewer Conditions

Pressure 29.83 in
Visibility 10.0 miles
Clouds Clear
Windchill 27 °F
Dew Point 17 °F
Humidity 49%
Rainfall 0.00 in
Snow Depth Not available.
UV 4 out of 16
Pollen Not available.
Air Quality Not available.
Flu Activity Sporadic
METAR PAIM 232055Z AUTO 08010G17KT 040V100 10SM CLR 02/M08 A2977 RMK AO2 SLP101 T00161082 57009

More Conditions Fewer Conditions

10-Day Weather Forecast

Almanac

Astronomy

Apr. 23, 2014 Rise Set
Actual Time 6:02 AM AKDT 10:26 PM AKDT
Civil Twilight 4:53 AM AKDT 11:36 PM AKDT
Nautical Twilight 2:45 AM AKDT 1:40 AM AKDT
Astronomical Twilight Sun does not rise Sun does not rise
Moon 5:07 AM AKDT 2:28 PM AKDT
Length of Visible Light 18h 43m
Length of Day
16h 23m
Tomorrow will be 7m 29s longer.
Waning Crescent, 32% of the Moon is Illuminated
Today
Waning Crescent
Apr 29
New
May 6
First Quarter
May 14
Full
May 21
Last Quarter

Today's Extremes

State Highs State Lows

Community

  • Stunning Sunrise
    Stunning Sunrise
  • spring flowers
    spring flowers
  • Earth Day Spectrum Ove' Blue
    Earth Day Spectrum Ove' Blue
  • BARN B&W
    BARN B&W
  • April Sunset
    April Sunset

WunderPhotos

Upload Photos

1,704,415 photos uploaded!

WunderBlogs® & News

Nearby

Snow Depth

Station Depth Elevation
Gobblers Knob 6 in 2030 ft
Coldfoot 21 in 1040 ft
Atigun Pass 37 in 4800 ft
Little Chena Ridge 7 in 2000 ft
Imnaviat Creek 25 in 3050 ft

Coastal Water Temperatures

Place Temperature
No Stations Reporting

Earthquake Activity

City Distance Mag. Time & Date
No recent earthquake activity has been reported nearby.
Minimum magnitude displayed is 2.5.

Nearby Weather Stations

There are no personal weather stations in this area.

What do you think?

We're not finished. Please let us know what you like, what you don't like, and what you are still missing.